Time;durP1;ratioP1;P1;durP2;ratioP2;P2;SDS_P1;SDS_P2;PMS_P1;PMS_P2;Temp;Humidity;BMP_temperature;BMP_pressure;BME280_temperature;BME280_humidity;BME280_pressure;Samples;Min_cycle;Max_cycle;Signal;HPM_P1;HPM_P2
2022/05/12 00:00:31;;;;;;;0.00;0.00;;;;;;;;;;5014812;28;20230;-68
2022/05/12 00:02:58;;;;;;;0.00;0.00;;;;;;;;;;5015067;28;20218;-68
2022/05/12 00:05:26;;;;;;;0.00;0.00;;;;;;;;;;5016642;28;20200;-68
2022/05/12 00:07:53;;;;;;;0.00;0.00;;;;;;;;;;5016656;28;20211;-68
2022/05/12 00:10:24;;;;;;;0.00;0.00;;;;;;;;;;5011840;28;20263;-68
2022/05/12 00:12:52;;;;;;;0.00;0.00;;;;;;;;;;5018649;28;20214;-68
2022/05/12 00:15:21;;;;;;;0.00;0.00;;;;;;;;;;5015109;28;20230;-68
2022/05/12 00:17:48;;;;;;;0.00;0.00;;;;;;;;;;5020347;28;20207;-68
2022/05/12 00:20:17;;;;;;;0.00;0.00;;;;;;;;;;5014779;28;20224;-69
2022/05/12 00:22:44;;;;;;;0.00;0.00;;;;;;;;;;5016755;28;20211;-68
2022/05/12 00:25:12;;;;;;;0.00;0.00;;;;;;;;;;5018809;28;20256;-68
2022/05/12 00:27:41;;;;;;;0.00;0.00;;;;;;;;;;5010947;28;20204;-68
2022/05/12 00:30:09;;;;;;;0.40;0.00;;;;;;;;;;5013975;28;20242;-68
2022/05/12 00:32:37;;;;;;;0.00;0.00;;;;;;;;;;5019096;28;20274;-68
2022/05/12 00:35:05;;;;;;;0.00;0.00;;;;;;;;;;5014262;28;20224;-68
2022/05/12 00:37:32;;;;;;;0.00;0.00;;;;;;;;;;5013458;28;20282;-68
2022/05/12 00:39:59;;;;;;;0.00;0.00;;;;;;;;;;5020524;28;20212;-68
2022/05/12 00:42:27;;;;;;;0.00;0.00;;;;;;;;;;5013499;28;20294;-68
2022/05/12 00:44:56;;;;;;;0.00;0.00;;;;;;;;;;5015996;28;20222;-68
2022/05/12 00:47:23;;;;;;;0.00;0.00;;;;;;;;;;5012838;28;20196;-69
2022/05/12 00:49:52;;;;;;;0.00;0.00;;;;;;;;;;5029669;28;20227;-68
2022/05/12 00:52:22;;;;;;;0.00;0.00;;;;;;;;;;5028844;28;20206;-68
2022/05/12 00:54:53;;;;;;;0.00;0.00;;;;;;;;;;5010057;28;20208;-68
2022/05/12 00:57:24;;;;;;;0.00;0.00;;;;;;;;;;5027772;28;20303;-68
2022/05/12 00:59:52;;;;;;;0.00;0.00;;;;;;;;;;5013112;28;20334;-68
2022/05/12 01:02:21;;;;;;;0.00;0.00;;;;;;;;;;5011404;28;20196;-68
2022/05/12 01:04:49;;;;;;;0.00;0.00;;;;;;;;;;5030055;28;20235;-68
2022/05/12 01:07:16;;;;;;;0.00;0.00;;;;;;;;;;5027715;28;20286;-68
2022/05/12 01:09:43;;;;;;;0.00;0.00;;;;;;;;;;5030999;28;20248;-68
2022/05/12 01:12:12;;;;;;;0.00;0.00;;;;;;;;;;5029823;28;20199;-69
2022/05/12 01:14:39;;;;;;;0.00;0.00;;;;;;;;;;5028825;28;20204;-69
2022/05/12 01:17:08;;;;;;;0.00;0.00;;;;;;;;;;5031344;28;20264;-68
2022/05/12 01:19:37;;;;;;;0.00;0.00;;;;;;;;;;5009494;28;20226;-68
2022/05/12 01:22:05;;;;;;;0.00;0.00;;;;;;;;;;5030240;28;20199;-68
2022/05/12 01:24:35;;;;;;;0.03;0.03;;;;;;;;;;5012237;28;20297;-69
2022/05/12 01:27:18;;;;;;;0.00;0.00;;;;;;;;;;5013350;28;20230;-69
2022/05/12 01:29:46;;;;;;;0.00;0.00;;;;;;;;;;5011256;28;20223;-69
2022/05/12 01:32:13;;;;;;;0.00;0.00;;;;;;;;;;5031375;28;20196;-69
2022/05/12 01:34:40;;;;;;;0.00;0.00;;;;;;;;;;5014141;28;20203;-70
2022/05/12 01:37:08;;;;;;;0.00;0.00;;;;;;;;;;5026552;28;20293;-69
2022/05/12 01:39:37;;;;;;;0.00;0.00;;;;;;;;;;5011028;28;20311;-69
2022/05/12 01:42:06;;;;;;;0.00;0.00;;;;;;;;;;5012098;28;20266;-69
2022/05/12 01:44:33;;;;;;;0.00;0.00;;;;;;;;;;5011783;28;20208;-69
2022/05/12 01:47:00;;;;;;;0.00;0.00;;;;;;;;;;5012670;28;20274;-69
2022/05/12 01:49:28;;;;;;;0.00;0.00;;;;;;;;;;5030737;28;20220;-69
2022/05/12 01:51:56;;;;;;;0.00;0.00;;;;;;;;;;5010372;28;20204;-69
2022/05/12 01:54:23;;;;;;;0.00;0.00;;;;;;;;;;5011328;28;20212;-68
2022/05/12 01:56:52;;;;;;;0.00;0.00;;;;;;;;;;5028069;28;20216;-69
2022/05/12 01:59:19;;;;;;;0.00;0.00;;;;;;;;;;5013358;28;20228;-69
2022/05/12 02:01:47;;;;;;;0.00;0.00;;;;;;;;;;5011915;28;20204;-69
2022/05/12 02:04:15;;;;;;;0.10;0.10;;;;;;;;;;5013626;28;20199;-68
2022/05/12 02:06:42;;;;;;;0.00;0.00;;;;;;;;;;5013117;28;20208;-69
2022/05/12 02:09:10;;;;;;;0.07;0.07;;;;;;;;;;5010103;28;20216;-69
2022/05/12 02:11:38;;;;;;;0.00;0.00;;;;;;;;;;5023683;28;20215;-68
2022/05/12 02:14:06;;;;;;;0.00;0.00;;;;;;;;;;5028912;28;20227;-69
2022/05/12 02:16:35;;;;;;;0.00;0.00;;;;;;;;;;5011531;28;20220;-69
2022/05/12 02:19:02;;;;;;;0.00;0.00;;;;;;;;;;5023473;28;20216;-69
2022/05/12 02:21:30;;;;;;;0.00;0.00;;;;;;;;;;5008960;28;20210;-69
2022/05/12 02:23:57;;;;;;;0.00;0.00;;;;;;;;;;5008836;28;20296;-69
2022/05/12 02:26:24;;;;;;;0.00;0.00;;;;;;;;;;5008880;28;20223;-68
2022/05/12 02:28:52;;;;;;;0.00;0.00;;;;;;;;;;5008789;28;20235;-68
2022/05/12 02:31:20;;;;;;;0.00;0.00;;;;;;;;;;5008672;28;20208;-69
2022/05/12 02:33:48;;;;;;;0.00;0.00;;;;;;;;;;5008614;28;20243;-68
2022/05/12 02:36:15;;;;;;;0.00;0.00;;;;;;;;;;5025726;28;20220;-69
2022/05/12 02:38:42;;;;;;;0.00;0.00;;;;;;;;;;5012663;28;20262;-69
2022/05/12 02:41:09;;;;;;;0.00;0.00;;;;;;;;;;5029694;28;20196;-69
2022/05/12 02:43:37;;;;;;;0.00;0.00;;;;;;;;;;5031433;28;20212;-69
2022/05/12 02:46:06;;;;;;;0.00;0.00;;;;;;;;;;5012265;28;20206;-69
2022/05/12 02:48:36;;;;;;;0.00;0.00;;;;;;;;;;5012128;28;20715;-69
2022/05/12 02:51:04;;;;;;;0.00;0.00;;;;;;;;;;5029919;28;20258;-69
2022/05/12 02:53:32;;;;;;;0.00;0.00;;;;;;;;;;5009381;28;20214;-69
2022/05/12 02:56:00;;;;;;;0.00;0.00;;;;;;;;;;5025174;28;20228;-69
2022/05/12 02:58:28;;;;;;;0.00;0.00;;;;;;;;;;5009842;28;20216;-69
2022/05/12 03:00:56;;;;;;;0.00;0.00;;;;;;;;;;5010069;28;20210;-69
2022/05/12 03:03:23;;;;;;;0.07;0.07;;;;;;;;;;5011634;28;20239;-68
2022/05/12 03:05:52;;;;;;;0.07;0.07;;;;;;;;;;5026005;28;20203;-68
2022/05/12 03:08:19;;;;;;;0.00;0.00;;;;;;;;;;5012929;28;20208;-68
2022/05/12 03:10:49;;;;;;;0.00;0.00;;;;;;;;;;5027047;28;20200;-69
2022/05/12 03:13:16;;;;;;;0.00;0.00;;;;;;;;;;5023984;28;20223;-69
2022/05/12 03:15:43;;;;;;;0.00;0.00;;;;;;;;;;5009506;28;20317;-69
2022/05/12 03:18:10;;;;;;;0.00;0.00;;;;;;;;;;5025980;28;20271;-69
2022/05/12 03:20:38;;;;;;;0.00;0.00;;;;;;;;;;5002359;28;20207;-68
2022/05/12 03:23:07;;;;;;;0.00;0.00;;;;;;;;;;5008225;28;20299;-68
2022/05/12 03:25:35;;;;;;;0.00;0.00;;;;;;;;;;5008822;28;20203;-69
2022/05/12 03:28:02;;;;;;;0.00;0.00;;;;;;;;;;5011515;28;20366;-68
2022/05/12 03:30:30;;;;;;;0.10;0.10;;;;;;;;;;5013606;28;20212;-68
2022/05/12 03:32:57;;;;;;;0.00;0.00;;;;;;;;;;5029549;28;20214;-68
2022/05/12 03:35:24;;;;;;;0.07;0.07;;;;;;;;;;5010760;28;20203;-68
2022/05/12 03:37:52;;;;;;;0.00;0.00;;;;;;;;;;5026275;28;20207;-68
2022/05/12 03:40:21;;;;;;;0.00;0.00;;;;;;;;;;5011311;28;20291;-69
2022/05/12 03:42:50;;;;;;;0.00;0.00;;;;;;;;;;5010859;28;20204;-68
2022/05/12 03:45:16;;;;;;;0.00;0.00;;;;;;;;;;5011293;28;20203;-69
2022/05/12 03:47:48;;;;;;;0.00;0.00;;;;;;;;;;5009759;28;20196;-68
2022/05/12 03:50:17;;;;;;;0.00;0.00;;;;;;;;;;5011728;28;20235;-68
2022/05/12 03:52:44;;;;;;;0.00;0.00;;;;;;;;;;5026343;28;20204;-68
2022/05/12 03:55:12;;;;;;;0.00;0.00;;;;;;;;;;5008451;28;20203;-68
2022/05/12 03:57:41;;;;;;;0.00;0.00;;;;;;;;;;5003653;28;20709;-68
2022/05/12 04:00:10;;;;;;;0.07;0.07;;;;;;;;;;5011660;28;20238;-68
2022/05/12 04:02:38;;;;;;;0.00;0.00;;;;;;;;;;5024318;28;20287;-69
2022/05/12 04:05:06;;;;;;;0.00;0.00;;;;;;;;;;5009303;28;20223;-68
2022/05/12 04:07:33;;;;;;;0.00;0.00;;;;;;;;;;5011245;28;20208;-69
2022/05/12 04:10:00;;;;;;;0.00;0.00;;;;;;;;;;5011033;28;20231;-68
2022/05/12 04:12:28;;;;;;;0.10;0.10;;;;;;;;;;5029232;28;20208;-68
2022/05/12 04:14:59;;;;;;;0.10;0.10;;;;;;;;;;5011092;28;20295;-68
2022/05/12 04:17:26;;;;;;;0.10;0.10;;;;;;;;;;5010739;28;20226;-68
2022/05/12 04:19:53;;;;;;;0.03;0.03;;;;;;;;;;5025625;28;20239;-68
2022/05/12 04:22:21;;;;;;;0.00;0.00;;;;;;;;;;5007940;28;20212;-68
2022/05/12 04:24:48;;;;;;;0.00;0.00;;;;;;;;;;5027557;28;20203;-68
2022/05/12 04:27:15;;;;;;;0.10;0.10;;;;;;;;;;5013372;28;20192;-68
2022/05/12 04:29:43;;;;;;;0.00;0.00;;;;;;;;;;5028003;28;20230;-68
2022/05/12 04:32:12;;;;;;;0.03;0.03;;;;;;;;;;5012716;28;20200;-71
2022/05/12 04:37:26;;;;;;;0.10;0.10;;;;;;;;;;5027244;28;20219;-68
2022/05/12 04:39:54;;;;;;;0.00;0.00;;;;;;;;;;5028567;28;20234;-68
2022/05/12 04:42:21;;;;;;;0.10;0.10;;;;;;;;;;5010647;28;20295;-69
2022/05/12 04:44:48;;;;;;;0.10;0.10;;;;;;;;;;5010780;28;20216;-68
2022/05/12 04:47:17;;;;;;;0.00;0.00;;;;;;;;;;5023685;28;20193;-69
2022/05/12 04:49:44;;;;;;;0.10;0.10;;;;;;;;;;5010232;28;20220;-70
2022/05/12 04:52:12;;;;;;;0.00;0.00;;;;;;;;;;5011428;28;20234;-68
2022/05/12 04:54:39;;;;;;;0.03;0.03;;;;;;;;;;5011725;28;20226;-68
2022/05/12 04:57:07;;;;;;;0.00;0.00;;;;;;;;;;5007630;28;20220;-69
2022/05/12 04:59:34;;;;;;;0.00;0.00;;;;;;;;;;5021619;28;20277;-68
2022/05/12 05:02:01;;;;;;;0.00;0.00;;;;;;;;;;5012601;28;20208;-69
2022/05/12 05:04:30;;;;;;;0.00;0.00;;;;;;;;;;5028523;28;20206;-69
2022/05/12 05:06:58;;;;;;;0.00;0.00;;;;;;;;;;5010284;28;20235;-68
2022/05/12 05:09:26;;;;;;;0.03;0.03;;;;;;;;;;5022448;28;20231;-68
2022/05/12 05:11:53;;;;;;;0.10;0.10;;;;;;;;;;5009452;28;20202;-68
2022/05/12 05:14:20;;;;;;;0.00;0.00;;;;;;;;;;5011060;28;20278;-69
2022/05/12 05:16:48;;;;;;;0.03;0.03;;;;;;;;;;5010764;28;20227;-69
2022/05/12 05:19:16;;;;;;;0.10;0.10;;;;;;;;;;5008276;28;20228;-69
2022/05/12 05:21:44;;;;;;;0.00;0.00;;;;;;;;;;5023014;28;20200;-69
2022/05/12 05:24:12;;;;;;;0.00;0.00;;;;;;;;;;5014537;28;20199;-70
2022/05/12 05:26:39;;;;;;;0.00;0.00;;;;;;;;;;5028423;28;20215;-70
2022/05/12 05:29:07;;;;;;;0.00;0.00;;;;;;;;;;5032820;28;20221;-70
2022/05/12 05:31:37;;;;;;;0.00;0.00;;;;;;;;;;5014181;28;20191;-70
2022/05/12 05:34:04;;;;;;;0.00;0.00;;;;;;;;;;5013715;28;20204;-70
2022/05/12 05:36:32;;;;;;;0.00;0.00;;;;;;;;;;5011489;28;20220;-70
2022/05/12 05:39:01;;;;;;;0.00;0.00;;;;;;;;;;5013910;28;20234;-70
2022/05/12 05:41:28;;;;;;;0.00;0.00;;;;;;;;;;5028577;28;20204;-70
2022/05/12 05:43:55;;;;;;;0.00;0.00;;;;;;;;;;5010642;28;20231;-69
2022/05/12 05:46:22;;;;;;;0.00;0.00;;;;;;;;;;5014351;28;20200;-68
2022/05/12 05:48:51;;;;;;;0.00;0.00;;;;;;;;;;5007288;28;20224;-68
2022/05/12 05:54:05;;;;;;;0.03;0.03;;;;;;;;;;5024219;28;20278;-70
2022/05/12 05:56:32;;;;;;;0.00;0.00;;;;;;;;;;5011374;28;20310;-67
2022/05/12 05:58:59;;;;;;;0.00;0.00;;;;;;;;;;5009139;28;20237;-68
2022/05/12 06:01:27;;;;;;;0.00;0.00;;;;;;;;;;5026088;28;20204;-67
2022/05/12 06:03:56;;;;;;;0.00;0.00;;;;;;;;;;5010309;28;20311;-69
2022/05/12 06:06:23;;;;;;;0.00;0.00;;;;;;;;;;5011218;28;20202;-68
2022/05/12 06:08:51;;;;;;;0.10;0.10;;;;;;;;;;5012363;28;20219;-69
2022/05/12 06:11:20;;;;;;;0.00;0.00;;;;;;;;;;5027546;28;20210;-69
2022/05/12 06:13:48;;;;;;;0.00;0.00;;;;;;;;;;5014920;28;20301;-67
2022/05/12 06:16:15;;;;;;;0.00;0.00;;;;;;;;;;5029828;28;20203;-68
2022/05/12 06:18:42;;;;;;;0.07;0.07;;;;;;;;;;5009376;28;20249;-69
2022/05/12 06:21:12;;;;;;;0.00;0.00;;;;;;;;;;5026556;28;20266;-68
2022/05/12 06:23:39;;;;;;;0.00;0.00;;;;;;;;;;5009460;28;20212;-68
2022/05/12 06:26:13;;;;;;;0.00;0.00;;;;;;;;;;5008508;28;20204;-68
2022/05/12 06:28:45;;;;;;;0.00;0.00;;;;;;;;;;5006909;28;20262;-69
2022/05/12 06:31:12;;;;;;;0.00;0.00;;;;;;;;;;5012266;28;20205;-69
2022/05/12 06:33:41;;;;;;;0.10;0.10;;;;;;;;;;5007980;28;20210;-69
2022/05/12 06:36:09;;;;;;;0.00;0.00;;;;;;;;;;5009468;28;20250;-68
2022/05/12 06:38:38;;;;;;;0.00;0.00;;;;;;;;;;5009552;28;20329;-69
2022/05/12 06:41:06;;;;;;;0.00;0.00;;;;;;;;;;5009599;28;20823;-69
2022/05/12 06:43:34;;;;;;;0.00;0.00;;;;;;;;;;5024474;28;20356;-69
2022/05/12 06:46:05;;;;;;;0.00;0.00;;;;;;;;;;5012357;28;20328;-69
2022/05/12 06:48:32;;;;;;;0.00;0.00;;;;;;;;;;5010692;28;20340;-70
2022/05/12 06:50:59;;;;;;;0.00;0.00;;;;;;;;;;5009764;28;20203;-70
2022/05/12 06:53:27;;;;;;;0.00;0.00;;;;;;;;;;5007781;28;20214;-70
2022/05/12 06:55:54;;;;;;;0.00;0.00;;;;;;;;;;5012138;28;20199;-70
2022/05/12 06:58:21;;;;;;;0.00;0.00;;;;;;;;;;5021492;28;20224;-70
2022/05/12 07:00:49;;;;;;;0.00;0.00;;;;;;;;;;5030671;28;20215;-70
2022/05/12 07:03:19;;;;;;;0.00;0.00;;;;;;;;;;5025987;28;20199;-70
2022/05/12 07:05:47;;;;;;;0.00;0.00;;;;;;;;;;5010921;28;20204;-70
2022/05/12 07:08:14;;;;;;;0.00;0.00;;;;;;;;;;5010552;28;20246;-70
2022/05/12 07:10:42;;;;;;;0.00;0.00;;;;;;;;;;5010968;28;20200;-69
2022/05/12 07:13:09;;;;;;;0.00;0.00;;;;;;;;;;5010973;28;20206;-71
2022/05/12 07:15:36;;;;;;;0.00;0.00;;;;;;;;;;5010670;28;20204;-71
2022/05/12 07:18:04;;;;;;;0.00;0.00;;;;;;;;;;5009887;28;20313;-70
2022/05/12 07:28:48;;;;;;;0.00;0.00;;;;;;;;;;5010355;28;20266;-70
2022/05/12 07:31:15;;;;;;;0.00;0.00;;;;;;;;;;5006226;28;20199;-70
2022/05/12 07:33:43;;;;;;;0.00;0.00;;;;;;;;;;5029821;28;20210;-69
2022/05/12 07:36:14;;;;;;;0.00;0.00;;;;;;;;;;5007472;28;20207;-69
2022/05/12 07:39:00;;;;;;;0.00;0.00;;;;;;;;;;5012796;28;20230;-70
2022/05/12 07:41:53;;;;;;;0.00;0.00;;;;;;;;;;5008010;28;20196;-70
2022/05/12 07:44:48;;;;;;;0.00;0.00;;;;;;;;;;5025547;28;20195;-70
2022/05/12 07:47:33;;;;;;;0.00;0.00;;;;;;;;;;5023030;28;20195;-70
2022/05/12 07:50:28;;;;;;;0.00;0.00;;;;;;;;;;5009375;28;20237;-68
2022/05/12 07:53:06;;;;;;;0.00;0.00;;;;;;;;;;5024941;28;20199;-69
2022/05/12 07:55:33;;;;;;;0.00;0.00;;;;;;;;;;5013056;28;20197;-67
2022/05/12 07:58:01;;;;;;;0.00;0.00;;;;;;;;;;5018681;28;20270;-69
2022/05/12 08:00:30;;;;;;;0.00;0.00;;;;;;;;;;5027258;28;20243;-69
2022/05/12 08:02:57;;;;;;;0.00;0.00;;;;;;;;;;5011235;28;20204;-69
2022/05/12 08:05:24;;;;;;;0.00;0.00;;;;;;;;;;5011561;28;20235;-68
2022/05/12 08:07:52;;;;;;;0.00;0.00;;;;;;;;;;5012127;28;20200;-70
2022/05/12 08:10:21;;;;;;;0.00;0.00;;;;;;;;;;5011583;28;20230;-70
2022/05/12 08:12:49;;;;;;;0.00;0.00;;;;;;;;;;5010841;28;20210;-69
2022/05/12 08:15:17;;;;;;;0.00;0.00;;;;;;;;;;5017486;28;20203;-70
2022/05/12 08:17:45;;;;;;;0.00;0.00;;;;;;;;;;4998902;28;20220;-69
2022/05/12 08:20:12;;;;;;;0.00;0.00;;;;;;;;;;5023175;28;20212;-69
2022/05/12 08:22:40;;;;;;;0.00;0.00;;;;;;;;;;5011082;28;20231;-69
2022/05/12 08:25:08;;;;;;;0.00;0.00;;;;;;;;;;5005934;28;20203;-69
2022/05/12 08:27:37;;;;;;;0.00;0.00;;;;;;;;;;5010235;28;20291;-69
2022/05/12 08:30:06;;;;;;;0.00;0.00;;;;;;;;;;5008516;28;20594;-70
2022/05/12 08:32:33;;;;;;;0.00;0.00;;;;;;;;;;5011000;28;20302;-68
2022/05/12 08:35:01;;;;;;;0.00;0.00;;;;;;;;;;5005226;28;20227;-69
2022/05/12 08:37:28;;;;;;;0.00;0.00;;;;;;;;;;5033982;28;20211;-69
2022/05/12 08:39:56;;;;;;;0.00;0.00;;;;;;;;;;5021429;28;20240;-69
2022/05/12 08:42:29;;;;;;;0.00;0.00;;;;;;;;;;5009905;28;20299;-68
2022/05/12 08:44:59;;;;;;;0.00;0.00;;;;;;;;;;5009317;28;20291;-69
2022/05/12 08:47:28;;;;;;;0.00;0.00;;;;;;;;;;5024712;28;20283;-69
2022/05/12 08:49:56;;;;;;;0.00;0.00;;;;;;;;;;5008433;28;20247;-69
2022/05/12 08:52:24;;;;;;;0.00;0.00;;;;;;;;;;5026782;28;20216;-69
2022/05/12 08:54:53;;;;;;;0.00;0.00;;;;;;;;;;5009796;28;20208;-68
2022/05/12 08:57:27;;;;;;;0.00;0.00;;;;;;;;;;5022620;28;20201;-69
2022/05/12 08:59:55;;;;;;;0.00;0.00;;;;;;;;;;5028076;28;20219;-69
2022/05/12 09:02:29;;;;;;;0.00;0.00;;;;;;;;;;5009958;28;20204;-68
2022/05/12 09:05:06;;;;;;;0.00;0.00;;;;;;;;;;5010249;28;20235;-69
2022/05/12 09:07:36;;;;;;;0.00;0.00;;;;;;;;;;5008085;28;20299;-69
2022/05/12 09:10:10;;;;;;;0.00;0.00;;;;;;;;;;5015729;28;20248;-70
2022/05/12 09:12:40;;;;;;;0.00;0.00;;;;;;;;;;5020313;28;20204;-70
2022/05/12 09:15:09;;;;;;;0.00;0.00;;;;;;;;;;5020265;28;20201;-67
2022/05/12 09:17:40;;;;;;;0.00;0.00;;;;;;;;;;5008893;28;20216;-67
2022/05/12 09:20:09;;;;;;;0.00;0.00;;;;;;;;;;5020171;28;20709;-68
2022/05/12 09:22:37;;;;;;;0.00;0.00;;;;;;;;;;5010709;28;20196;-69
2022/05/12 09:25:05;;;;;;;0.00;0.00;;;;;;;;;;5010195;28;20196;-68
2022/05/12 09:27:35;;;;;;;0.00;0.00;;;;;;;;;;5009672;28;20204;-69
2022/05/12 09:30:04;;;;;;;0.00;0.00;;;;;;;;;;5026714;28;20616;-68
2022/05/12 09:32:33;;;;;;;0.00;0.00;;;;;;;;;;5009859;28;20223;-68
2022/05/12 09:35:20;;;;;;;0.00;0.00;;;;;;;;;;5006553;28;20205;-69
2022/05/12 09:37:48;;;;;;;0.00;0.00;;;;;;;;;;5008370;28;20230;-69
2022/05/12 09:40:19;;;;;;;0.00;0.00;;;;;;;;;;5024573;28;20222;-69
2022/05/12 09:42:47;;;;;;;0.00;0.00;;;;;;;;;;5027290;28;20254;-68
2022/05/12 09:45:36;;;;;;;0.00;0.00;;;;;;;;;;5009036;28;20268;-68
2022/05/12 09:48:11;;;;;;;0.00;0.00;;;;;;;;;;5000287;28;20227;-70
2022/05/12 09:50:40;;;;;;;0.00;0.00;;;;;;;;;;5003404;28;20199;-69
2022/05/12 09:53:09;;;;;;;0.00;0.00;;;;;;;;;;5009577;28;21188;-70
2022/05/12 09:55:42;;;;;;;0.00;0.00;;;;;;;;;;5009273;28;20192;-69
2022/05/12 09:58:25;;;;;;;0.00;0.00;;;;;;;;;;5025762;28;20262;-69
2022/05/12 10:01:05;;;;;;;0.00;0.00;;;;;;;;;;5009510;28;20210;-69
2022/05/12 10:09:10;;;;;;;0.00;0.00;;;;;;;;;;5006313;28;20212;-68
2022/05/12 10:11:42;;;;;;;0.00;0.00;;;;;;;;;;5007917;28;20196;-68
2022/05/12 10:14:16;;;;;;;0.00;0.00;;;;;;;;;;5009218;28;20207;-68
2022/05/12 10:16:44;;;;;;;0.00;0.00;;;;;;;;;;5024893;28;20207;-69
2022/05/12 10:19:14;;;;;;;0.00;0.00;;;;;;;;;;5011576;28;20228;-69
2022/05/12 10:21:45;;;;;;;0.00;0.00;;;;;;;;;;5009204;28;20215;-69
2022/05/12 10:24:20;;;;;;;0.00;0.00;;;;;;;;;;5008848;28;20231;-69
2022/05/12 10:26:50;;;;;;;0.00;0.00;;;;;;;;;;5008231;28;20203;-69
2022/05/12 10:29:23;;;;;;;0.00;0.00;;;;;;;;;;5026780;28;20226;-68
2022/05/12 10:31:54;;;;;;;0.00;0.00;;;;;;;;;;5008545;28;20204;-68
2022/05/12 10:34:30;;;;;;;0.00;0.00;;;;;;;;;;5025510;28;20204;-70
2022/05/12 10:37:02;;;;;;;0.00;0.00;;;;;;;;;;5005375;28;20225;-68
2022/05/12 10:39:30;;;;;;;0.00;0.00;;;;;;;;;;5008157;28;20287;-70
2022/05/12 10:42:05;;;;;;;0.00;0.00;;;;;;;;;;5008355;28;20304;-69
2022/05/12 10:44:40;;;;;;;0.00;0.00;;;;;;;;;;5008620;28;20218;-69
2022/05/12 10:47:14;;;;;;;0.00;0.00;;;;;;;;;;5025996;28;20200;-69
2022/05/12 10:49:46;;;;;;;0.00;0.00;;;;;;;;;;5009453;28;20226;-69
2022/05/12 10:52:18;;;;;;;0.00;0.00;;;;;;;;;;5008772;28;20201;-69
2022/05/12 10:54:53;;;;;;;0.00;0.00;;;;;;;;;;5025289;28;20196;-69
2022/05/12 10:57:26;;;;;;;0.00;0.00;;;;;;;;;;5023868;28;20301;-68
2022/05/12 11:00:10;;;;;;;0.00;0.00;;;;;;;;;;5007919;28;20231;-68
2022/05/12 11:02:40;;;;;;;0.00;0.00;;;;;;;;;;5008283;28;20635;-69
2022/05/12 11:05:12;;;;;;;0.00;0.00;;;;;;;;;;5007397;28;20200;-68
2022/05/12 11:07:44;;;;;;;0.00;0.00;;;;;;;;;;5022993;28;20232;-68
2022/05/12 11:10:21;;;;;;;0.00;0.00;;;;;;;;;;5008220;28;20223;-68
2022/05/12 11:12:50;;;;;;;0.00;0.00;;;;;;;;;;5024099;28;20281;-68
2022/05/12 11:15:20;;;;;;;0.00;0.00;;;;;;;;;;5026068;28;20210;-67
2022/05/12 11:17:50;;;;;;;0.00;0.00;;;;;;;;;;5007494;28;20219;-69
2022/05/12 11:20:25;;;;;;;0.00;0.00;;;;;;;;;;5008348;28;20218;-70
2022/05/12 11:22:59;;;;;;;0.00;0.00;;;;;;;;;;5024431;28;20211;-69
2022/05/12 11:25:30;;;;;;;0.00;0.00;;;;;;;;;;5025716;28;20208;-70
2022/05/12 11:30:48;;;;;;;0.00;0.00;;;;;;;;;;5001886;28;20235;-69
2022/05/12 11:33:23;;;;;;;0.00;0.00;;;;;;;;;;5008241;28;20680;-69
2022/05/12 11:35:51;;;;;;;0.00;0.00;;;;;;;;;;5025271;28;20202;-70
2022/05/12 11:38:37;;;;;;;0.00;0.00;;;;;;;;;;5024173;28;20302;-69
2022/05/12 11:41:07;;;;;;;0.00;0.00;;;;;;;;;;5017189;28;20293;-69
2022/05/12 11:46:30;;;;;;;0.00;0.00;;;;;;;;;;5007262;28;20204;-68
2022/05/12 11:48:59;;;;;;;0.00;0.00;;;;;;;;;;5006969;28;20219;-68
2022/05/12 11:51:32;;;;;;;0.00;0.00;;;;;;;;;;5024880;28;20310;-68
2022/05/12 11:54:01;;;;;;;0.00;0.00;;;;;;;;;;5004299;28;20258;-69
2022/05/12 11:56:48;;;;;;;0.00;0.00;;;;;;;;;;5020170;28;20295;-68
2022/05/12 11:59:31;;;;;;;0.00;0.00;;;;;;;;;;5015925;28;20589;-69
2022/05/12 12:01:59;;;;;;;0.00;0.00;;;;;;;;;;5009269;28;20204;-70
2022/05/12 12:04:50;;;;;;;0.00;0.00;;;;;;;;;;5007315;28;20291;-70
2022/05/12 12:07:38;;;;;;;0.00;0.00;;;;;;;;;;5007725;28;20258;-70
2022/05/12 12:10:06;;;;;;;0.00;0.00;;;;;;;;;;5007265;28;20277;-69
2022/05/12 12:12:59;;;;;;;0.00;0.00;;;;;;;;;;5006886;28;20200;-69
2022/05/12 12:15:43;;;;;;;0.00;0.00;;;;;;;;;;5007312;28;20212;-69
2022/05/12 12:18:29;;;;;;;0.00;0.00;;;;;;;;;;5005315;28;20216;-69
2022/05/12 12:20:58;;;;;;;0.00;0.00;;;;;;;;;;5004168;28;20307;-67
2022/05/12 12:23:27;;;;;;;0.00;0.00;;;;;;;;;;5007474;28;20251;-69
2022/05/12 12:25:58;;;;;;;0.00;0.00;;;;;;;;;;5007117;28;20200;-70
2022/05/12 12:28:29;;;;;;;0.00;0.00;;;;;;;;;;5007601;28;20227;-69
2022/05/12 12:31:05;;;;;;;0.00;0.00;;;;;;;;;;5026036;28;20728;-70
2022/05/12 12:34:03;;;;;;;0.00;0.00;;;;;;;;;;5008199;28;20200;-70
2022/05/12 12:36:49;;;;;;;0.00;0.00;;;;;;;;;;5001333;28;20296;-70
2022/05/12 12:39:30;;;;;;;0.00;0.00;;;;;;;;;;5021675;28;20255;-70
2022/05/12 12:42:06;;;;;;;0.00;0.00;;;;;;;;;;5007743;28;20295;-70
2022/05/12 12:44:34;;;;;;;0.00;0.00;;;;;;;;;;5006065;28;20279;-70
2022/05/12 12:47:11;;;;;;;0.00;0.00;;;;;;;;;;5026654;28;20250;-67
2022/05/12 12:49:45;;;;;;;0.00;0.00;;;;;;;;;;5005484;28;20317;-70
2022/05/12 12:52:13;;;;;;;0.00;0.00;;;;;;;;;;5011157;28;20208;-69
2022/05/12 12:57:26;;;;;;;0.00;0.00;;;;;;;;;;5009345;28;20204;-70
2022/05/12 12:59:57;;;;;;;0.00;0.00;;;;;;;;;;5028015;28;20250;-70
2022/05/12 13:02:30;;;;;;;0.03;0.00;;;;;;;;;;5010728;28;20202;-69
2022/05/12 13:04:58;;;;;;;0.00;0.00;;;;;;;;;;5027828;28;20223;-69
2022/05/12 13:07:26;;;;;;;0.00;0.00;;;;;;;;;;5010195;28;20760;-70
2022/05/12 13:09:55;;;;;;;0.00;0.00;;;;;;;;;;5011021;28;20247;-70
2022/05/12 13:12:24;;;;;;;0.00;0.00;;;;;;;;;;5010045;28;20302;-70
2022/05/12 13:14:52;;;;;;;0.00;0.00;;;;;;;;;;5010077;28;20204;-70
2022/05/12 13:17:21;;;;;;;0.00;0.00;;;;;;;;;;5010408;28;20196;-70
2022/05/12 13:19:49;;;;;;;0.00;0.00;;;;;;;;;;5009932;28;20326;-69
2022/05/12 13:22:21;;;;;;;0.00;0.00;;;;;;;;;;5009941;28;20291;-69
2022/05/12 13:24:49;;;;;;;0.00;0.00;;;;;;;;;;5028201;28;20228;-70
2022/05/12 13:27:19;;;;;;;0.00;0.00;;;;;;;;;;5010829;28;20290;-69
2022/05/12 13:29:47;;;;;;;0.00;0.00;;;;;;;;;;5010090;28;20223;-69
2022/05/12 13:35:10;;;;;;;0.00;0.00;;;;;;;;;;5081566;28;20780;-69
2022/05/12 13:37:44;;;;;;;0.00;0.00;;;;;;;;;;5081308;28;20198;-68
2022/05/12 13:40:12;;;;;;;0.00;0.00;;;;;;;;;;5062133;28;20265;-69
2022/05/12 13:42:43;;;;;;;0.00;0.00;;;;;;;;;;5056913;28;20232;-70
2022/05/12 13:45:11;;;;;;;0.00;0.00;;;;;;;;;;5057750;28;20199;-70
2022/05/12 13:47:39;;;;;;;0.00;0.00;;;;;;;;;;5059589;28;20452;-70
2022/05/12 13:50:09;;;;;;;0.00;0.00;;;;;;;;;;5059155;28;20226;-70
2022/05/12 13:52:41;;;;;;;0.00;0.00;;;;;;;;;;5058531;28;20205;-69
2022/05/12 13:55:16;;;;;;;0.00;0.00;;;;;;;;;;5056371;28;20218;-69
2022/05/12 13:57:43;;;;;;;0.00;0.00;;;;;;;;;;5059627;28;20321;-68
2022/05/12 14:00:18;;;;;;;0.00;0.00;;;;;;;;;;5054375;28;20218;-70
2022/05/12 14:02:46;;;;;;;0.00;0.00;;;;;;;;;;5058952;28;20207;-70
2022/05/12 14:05:16;;;;;;;0.00;0.00;;;;;;;;;;5056953;28;20297;-69
2022/05/12 14:07:44;;;;;;;0.00;0.00;;;;;;;;;;5058934;28;20195;-68
2022/05/12 14:10:14;;;;;;;0.00;0.00;;;;;;;;;;5058018;28;20246;-68
2022/05/12 14:19:13;;;;;;;0.00;0.00;;;;;;;;;;5061945;28;20202;-69
2022/05/12 14:21:00;;;;;;;0.00;0.00;;;;;;;;;;5054834;28;20191;-68
2022/05/12 14:23:27;;;;;;;0.00;0.00;;;;;;;;;;5054447;28;20245;-69
2022/05/12 14:25:54;;;;;;;0.00;0.00;;;;;;;;;;5060365;28;20635;-69
2022/05/12 14:28:21;;;;;;;0.00;0.00;;;;;;;;;;5057320;28;20230;-70
2022/05/12 14:30:49;;;;;;;0.00;0.00;;;;;;;;;;5058191;28;20286;-69
2022/05/12 14:33:18;;;;;;;0.00;0.00;;;;;;;;;;5059827;28;20246;-69
2022/05/12 14:35:45;;;;;;;0.00;0.00;;;;;;;;;;5061330;28;20711;-69
2022/05/12 14:38:13;;;;;;;0.00;0.00;;;;;;;;;;5060015;28;20202;-66
2022/05/12 14:40:41;;;;;;;0.00;0.00;;;;;;;;;;5059408;28;20847;-68
2022/05/12 14:43:08;;;;;;;0.00;0.00;;;;;;;;;;5060340;28;20293;-68
2022/05/12 14:45:35;;;;;;;0.00;0.00;;;;;;;;;;5052305;28;20191;-68
2022/05/12 14:48:04;;;;;;;0.00;0.00;;;;;;;;;;5042336;28;20635;-68
2022/05/12 14:50:32;;;;;;;0.00;0.00;;;;;;;;;;5048605;28;20635;-68
2022/05/12 14:52:59;;;;;;;0.00;0.00;;;;;;;;;;5045356;28;20214;-68
2022/05/12 14:55:27;;;;;;;0.00;0.00;;;;;;;;;;5044725;28;20251;-67
2022/05/12 14:57:54;;;;;;;0.00;0.00;;;;;;;;;;5034863;28;20220;-69
2022/05/12 15:00:21;;;;;;;0.00;0.00;;;;;;;;;;5042988;28;20322;-68
2022/05/12 15:02:49;;;;;;;0.00;0.00;;;;;;;;;;5039489;28;20191;-68
2022/05/12 15:05:17;;;;;;;0.00;0.00;;;;;;;;;;5044960;28;20291;-69
2022/05/12 15:07:44;;;;;;;0.00;0.00;;;;;;;;;;5046208;28;20253;-68
2022/05/12 15:10:12;;;;;;;0.00;0.00;;;;;;;;;;5046266;28;20703;-68
2022/05/12 15:12:41;;;;;;;0.00;0.00;;;;;;;;;;5038760;28;20200;-67
2022/05/12 15:15:09;;;;;;;0.00;0.00;;;;;;;;;;5040674;28;20231;-68
2022/05/12 15:17:37;;;;;;;0.00;0.00;;;;;;;;;;5047995;28;20231;-68
2022/05/12 15:20:05;;;;;;;0.00;0.00;;;;;;;;;;5057640;28;20281;-68
2022/05/12 15:22:32;;;;;;;0.00;0.00;;;;;;;;;;5044673;28;20266;-69
2022/05/12 15:24:59;;;;;;;0.00;0.00;;;;;;;;;;5045726;28;20234;-69
2022/05/12 15:27:29;;;;;;;0.00;0.00;;;;;;;;;;5032879;28;20295;-67
2022/05/12 15:29:58;;;;;;;0.00;0.00;;;;;;;;;;5045898;28;20249;-69
2022/05/12 15:32:25;;;;;;;0.00;0.00;;;;;;;;;;5048377;28;20269;-69
2022/05/12 15:34:52;;;;;;;0.00;0.00;;;;;;;;;;5045736;28;20223;-69